Time;durP1;ratioP1;P1;durP2;ratioP2;P2;SDS_P1;SDS_P2;PMS_P1;PMS_P2;Temp;Humidity;BMP_temperature;BMP_pressure;BME280_temperature;BME280_humidity;BME280_pressure;Samples;Min_cycle;Max_cycle;Signal;HPM_P1;HPM_P2
2024/01/23 00:01:11;;;;;;;0.27;0.27;;;8.80;99.90;;;;;;7367645;19;20279;-73
2024/01/23 00:03:37;;;;;;;0.53;0.37;;;8.70;99.90;;;;;;7371200;19;20131;-74
2024/01/23 00:06:03;;;;;;;0.30;0.30;;;8.80;99.90;;;;;;7387622;19;20181;-72
2024/01/23 00:08:29;;;;;;;0.23;0.23;;;8.70;99.90;;;;;;7370897;19;20195;-74
2024/01/23 00:10:56;;;;;;;2.10;0.73;;;8.80;99.90;;;;;;7368367;19;20654;-73
2024/01/23 00:13:21;;;;;;;1.37;0.40;;;8.80;99.90;;;;;;7369649;19;20215;-73
2024/01/23 00:15:47;;;;;;;0.30;0.30;;;9.00;99.90;;;;;;7368868;19;20179;-75
2024/01/23 00:18:13;;;;;;;0.70;0.40;;;9.10;99.90;;;;;;7390544;19;20166;-74
2024/01/23 00:20:38;;;;;;;0.30;0.30;;;9.10;99.90;;;;;;7366565;19;20198;-73
2024/01/23 00:23:04;;;;;;;0.70;0.30;;;9.10;99.90;;;;;;7368428;19;20249;-73
2024/01/23 00:25:30;;;;;;;0.30;0.30;;;9.20;99.90;;;;;;7368019;19;20190;-74
2024/01/23 00:27:56;;;;;;;0.40;0.40;;;9.20;99.90;;;;;;7369507;19;20186;-74
2024/01/23 00:30:21;;;;;;;0.30;0.30;;;9.00;99.90;;;;;;7388529;19;20150;-73
2024/01/23 00:32:47;;;;;;;0.37;0.37;;;8.90;99.90;;;;;;7369713;19;20206;-74
2024/01/23 00:35:13;;;;;;;0.30;0.30;;;9.00;99.90;;;;;;7365029;19;20186;-73
2024/01/23 00:37:38;;;;;;;0.30;0.20;;;8.90;99.90;;;;;;7369062;19;20193;-73
2024/01/23 00:40:04;;;;;;;0.30;0.30;;;8.90;99.90;;;;;;7366648;19;20567;-74
2024/01/23 00:42:30;;;;;;;0.20;0.20;;;8.80;99.90;;;;;;7368657;19;20139;-74
2024/01/23 00:44:56;;;;;;;0.17;0.17;;;8.80;99.90;;;;;;7388509;19;20134;-73
2024/01/23 00:47:22;;;;;;;0.40;0.40;;;8.70;99.90;;;;;;7367794;19;20584;-74
2024/01/23 00:49:47;;;;;;;0.40;0.40;;;8.70;99.90;;;;;;7365844;19;20283;-74
2024/01/23 00:52:13;;;;;;;0.37;0.33;;;8.70;99.90;;;;;;7366594;19;20190;-73
2024/01/23 00:54:39;;;;;;;0.30;0.30;;;8.70;99.90;;;;;;7365451;19;20628;-73
2024/01/23 00:57:05;;;;;;;2.53;0.57;;;8.70;99.90;;;;;;7389871;19;20137;-74
2024/01/23 00:59:31;;;;;;;0.20;0.20;;;8.80;99.90;;;;;;7366348;19;20185;-74
2024/01/23 01:01:57;;;;;;;0.87;0.40;;;8.80;99.90;;;;;;7367606;19;20190;-73
2024/01/23 01:04:23;;;;;;;0.60;0.27;;;9.00;99.90;;;;;;7364965;19;20202;-74
2024/01/23 01:06:48;;;;;;;1.30;0.40;;;9.10;99.90;;;;;;7369302;19;20286;-73
2024/01/23 01:09:14;;;;;;;0.40;0.30;;;9.10;99.90;;;;;;7390336;19;20139;-73
2024/01/23 01:11:39;;;;;;;0.70;0.43;;;9.10;99.90;;;;;;7368352;19;20217;-73
2024/01/23 01:14:05;;;;;;;0.60;0.50;;;8.90;99.90;;;;;;7365534;19;20189;-74
2024/01/23 01:16:31;;;;;;;1.43;0.97;;;8.60;99.90;;;;;;7368496;19;20194;-74
2024/01/23 01:18:58;;;;;;;0.10;0.10;;;8.50;99.90;;;;;;7366417;19;20189;-73
2024/01/23 01:21:23;;;;;;;0.90;0.55;;;8.50;99.90;;;;;;7386285;19;20750;-74
2024/01/23 01:23:49;;;;;;;0.30;0.30;;;8.50;99.90;;;;;;7365243;19;20186;-73
2024/01/23 01:26:15;;;;;;;0.33;0.33;;;8.10;99.90;;;;;;7366369;19;20821;-73
2024/01/23 01:28:40;;;;;;;0.13;0.13;;;8.00;99.90;;;;;;7365865;19;20224;-73
2024/01/23 01:31:06;;;;;;;0.67;0.57;;;8.10;99.90;;;;;;7368308;19;20193;-74
2024/01/23 01:33:32;;;;;;;0.30;0.30;;;8.10;99.90;;;;;;7364543;19;20682;-74
2024/01/23 01:35:57;;;;;;;0.30;0.30;;;8.20;99.90;;;;;;7390074;19;20158;-72
2024/01/23 01:38:23;;;;;;;0.50;0.50;;;8.30;99.90;;;;;;7366533;19;20189;-73
2024/01/23 01:40:49;;;;;;;0.33;0.33;;;8.20;99.90;;;;;;7368730;19;20578;-74
2024/01/23 01:43:29;;;;;;;2.43;0.37;;;8.30;99.90;;;;;;7365411;19;20248;-74
2024/01/23 01:46:19;;;;;;;0.27;0.27;;;8.40;99.90;;;;;;7364850;19;20177;-75
2024/01/23 01:48:47;;;;;;;0.40;0.40;;;8.50;99.90;;;;;;7375221;19;20146;-73
2024/01/23 01:51:14;;;;;;;1.10;0.87;;;8.40;99.90;;;;;;7394726;19;20171;-74
2024/01/23 01:53:41;;;;;;;0.30;0.30;;;8.40;99.90;;;;;;7374776;19;20707;-74
2024/01/23 01:56:08;;;;;;;0.20;0.20;;;8.60;99.90;;;;;;7373256;19;20186;-74
2024/01/23 01:58:34;;;;;;;0.73;0.50;;;8.60;99.90;;;;;;7373831;19;20209;-73
2024/01/23 02:01:00;;;;;;;0.60;0.40;;;8.50;99.90;;;;;;7372119;19;20186;-74
2024/01/23 02:03:27;;;;;;;0.97;0.63;;;8.40;99.90;;;;;;7393142;19;20153;-73
2024/01/23 02:05:53;;;;;;;0.20;0.20;;;8.30;99.90;;;;;;7371688;19;20189;-73
2024/01/23 02:08:19;;;;;;;0.37;0.37;;;8.40;99.90;;;;;;7373727;19;20208;-74
2024/01/23 02:10:45;;;;;;;0.20;0.20;;;8.30;99.90;;;;;;7371233;19;20200;-73
2024/01/23 02:13:11;;;;;;;0.40;0.30;;;8.30;99.90;;;;;;7372603;19;20186;-73
2024/01/23 02:15:36;;;;;;;0.50;0.50;;;8.30;99.90;;;;;;7372349;19;20143;-73
2024/01/23 02:18:02;;;;;;;0.20;0.20;;;8.40;99.90;;;;;;7397116;19;20158;-74
2024/01/23 02:20:28;;;;;;;0.30;0.30;;;8.50;99.90;;;;;;7368628;19;20182;-74
2024/01/23 02:22:54;;;;;;;0.20;0.20;;;8.50;99.90;;;;;;7372267;19;20186;-73
2024/01/23 02:25:20;;;;;;;0.33;0.33;;;8.50;99.90;;;;;;7370602;19;20673;-74
2024/01/23 02:27:45;;;;;;;0.40;0.40;;;8.60;99.90;;;;;;7375394;19;20127;-74
2024/01/23 02:30:12;;;;;;;0.30;0.30;;;8.60;99.90;;;;;;7392500;19;20138;-73
2024/01/23 02:32:42;;;;;;;1.73;0.40;;;8.60;99.90;;;;;;7373464;19;20182;-74
2024/01/23 02:35:08;;;;;;;1.60;0.93;;;8.60;99.90;;;;;;7371434;19;20186;-73
2024/01/23 02:37:33;;;;;;;0.80;0.43;;;8.60;99.90;;;;;;7372656;19;20261;-73
2024/01/23 02:39:59;;;;;;;0.20;0.20;;;8.50;99.90;;;;;;7373278;19;20609;-73
2024/01/23 02:42:25;;;;;;;0.30;0.30;;;8.30;99.90;;;;;;7393691;19;20139;-73
2024/01/23 02:44:50;;;;;;;0.37;0.20;;;8.30;99.90;;;;;;7370322;19;20190;-74
2024/01/23 02:47:16;;;;;;;0.40;0.40;;;8.20;99.90;;;;;;7371231;19;20186;-73
2024/01/23 02:49:41;;;;;;;0.20;0.20;;;8.30;99.90;;;;;;7370621;19;20225;-74
2024/01/23 02:52:07;;;;;;;0.30;0.30;;;8.30;99.90;;;;;;7372209;19;20376;-73
2024/01/23 02:54:33;;;;;;;0.30;0.30;;;8.40;99.90;;;;;;7370338;19;20122;-73
2024/01/23 02:56:59;;;;;;;0.27;0.27;;;8.40;99.90;;;;;;7393536;19;20561;-72
2024/01/23 02:59:25;;;;;;;0.73;0.20;;;8.20;99.90;;;;;;7371199;19;20210;-72
2024/01/23 03:01:51;;;;;;;1.40;0.30;;;8.30;99.90;;;;;;7368570;19;20182;-74
2024/01/23 03:04:16;;;;;;;0.27;0.27;;;8.20;99.90;;;;;;7368297;19;20261;-73
2024/01/23 03:06:42;;;;;;;0.93;0.27;;;8.20;99.90;;;;;;7368747;19;20134;-74
2024/01/23 03:09:10;;;;;;;0.30;0.30;;;8.30;99.90;;;;;;7378531;19;20139;-74
2024/01/23 03:11:36;;;;;;;0.30;0.30;;;8.30;99.90;;;;;;7371873;19;20182;-73
2024/01/23 03:14:03;;;;;;;1.13;0.73;;;8.20;99.90;;;;;;7370624;19;20976;-72
2024/01/23 03:16:29;;;;;;;0.30;0.30;;;8.20;99.90;;;;;;7370363;19;20190;-74
2024/01/23 03:18:54;;;;;;;1.80;0.30;;;8.20;99.90;;;;;;7370504;19;20602;-73
2024/01/23 03:21:20;;;;;;;3.40;0.50;;;8.30;99.90;;;;;;7392852;19;20138;-73
2024/01/23 03:23:46;;;;;;;0.97;0.53;;;8.20;99.90;;;;;;7368883;19;20265;-73
2024/01/23 03:26:11;;;;;;;0.40;0.40;;;8.10;99.90;;;;;;7371259;19;20261;-74
2024/01/23 03:28:37;;;;;;;0.30;0.30;;;8.20;99.90;;;;;;7370146;19;20194;-74
2024/01/23 03:31:03;;;;;;;1.50;0.60;;;8.20;99.90;;;;;;7369935;19;20189;-73
2024/01/23 03:33:29;;;;;;;2.47;0.50;;;8.10;99.90;;;;;;7369527;19;20139;-74
2024/01/23 03:35:55;;;;;;;3.07;0.87;;;8.20;99.90;;;;;;7390583;19;20158;-73
2024/01/23 03:38:21;;;;;;;0.50;0.50;;;8.30;99.90;;;;;;7371369;19;20656;-74
2024/01/23 03:40:46;;;;;;;0.67;0.20;;;8.40;99.90;;;;;;7369251;19;20659;-74
2024/01/23 03:43:12;;;;;;;2.73;0.40;;;8.50;99.90;;;;;;7366985;19;20190;-73
2024/01/23 03:45:38;;;;;;;1.60;0.40;;;8.60;99.90;;;;;;7366004;19;20147;-73
2024/01/23 03:48:04;;;;;;;0.60;0.40;;;8.40;99.90;;;;;;7393591;19;20467;-73
2024/01/23 03:50:30;;;;;;;2.30;0.80;;;8.30;99.90;;;;;;7369068;19;20196;-74
2024/01/23 03:52:56;;;;;;;1.90;0.93;;;8.30;99.90;;;;;;7369946;19;20263;-72
2024/01/23 03:55:22;;;;;;;0.30;0.30;;;8.40;99.90;;;;;;7370722;19;20189;-73
2024/01/23 03:57:47;;;;;;;1.90;0.40;;;8.40;99.90;;;;;;7371337;19;20580;-73
2024/01/23 04:00:14;;;;;;;0.63;0.30;;;8.40;99.90;;;;;;7390907;19;20134;-73
2024/01/23 04:02:40;;;;;;;0.63;0.63;;;8.40;99.90;;;;;;7369689;19;20211;-74
2024/01/23 04:05:07;;;;;;;0.60;0.50;;;8.40;99.90;;;;;;7366490;19;20201;-72
2024/01/23 04:07:33;;;;;;;1.03;0.63;;;8.30;99.90;;;;;;7369913;19;20182;-73
2024/01/23 04:09:59;;;;;;;0.43;0.43;;;8.20;99.90;;;;;;7366029;19;20342;-74
2024/01/23 04:12:25;;;;;;;0.53;0.50;;;8.30;99.90;;;;;;7390207;19;20552;-73
2024/01/23 04:14:51;;;;;;;3.60;1.10;;;8.20;99.90;;;;;;7369416;19;20186;-74
2024/01/23 04:17:17;;;;;;;0.40;0.40;;;8.30;99.90;;;;;;7367749;19;20262;-73
2024/01/23 04:19:43;;;;;;;0.60;0.27;;;8.30;99.90;;;;;;7368289;19;20196;-73
2024/01/23 04:22:10;;;;;;;1.10;0.30;;;8.40;99.90;;;;;;7370086;19;20200;-73
2024/01/23 04:24:36;;;;;;;0.60;0.60;;;8.50;99.90;;;;;;7367969;19;20146;-74
2024/01/23 04:27:03;;;;;;;1.17;0.40;;;8.60;99.90;;;;;;7389664;19;20612;-73
2024/01/23 04:29:29;;;;;;;0.43;0.43;;;8.60;99.90;;;;;;7366372;19;20735;-74
2024/01/23 04:31:55;;;;;;;0.60;0.60;;;8.60;99.90;;;;;;7366970;19;20297;-73
2024/01/23 04:34:20;;;;;;;0.80;0.47;;;8.60;99.90;;;;;;7368612;19;20182;-73
2024/01/23 04:36:46;;;;;;;1.10;1.00;;;8.50;99.90;;;;;;7365745;19;21364;-74
2024/01/23 04:39:11;;;;;;;1.37;0.93;;;8.50;99.90;;;;;;7388571;19;20157;-73
2024/01/23 04:41:38;;;;;;;1.90;0.93;;;8.50;99.90;;;;;;7368486;19;20787;-74
2024/01/23 04:44:06;;;;;;;0.57;0.53;;;8.40;99.90;;;;;;7369093;19;20343;-73
2024/01/23 04:46:32;;;;;;;0.40;0.40;;;8.40;99.90;;;;;;7367713;19;20185;-74
2024/01/23 04:48:58;;;;;;;1.23;0.67;;;8.60;99.90;;;;;;7367350;19;20229;-74
2024/01/23 04:51:23;;;;;;;0.70;0.50;;;8.60;99.90;;;;;;7388369;19;20160;-74
2024/01/23 04:53:52;;;;;;;1.90;1.33;;;8.40;99.90;;;;;;7368492;19;20277;-74
2024/01/23 04:56:20;;;;;;;0.97;0.30;;;8.30;99.90;;;;;;7367584;19;20249;-74
2024/01/23 04:58:46;;;;;;;0.93;0.40;;;8.40;99.90;;;;;;7367437;19;20189;-73
2024/01/23 05:01:12;;;;;;;0.30;0.30;;;8.30;99.90;;;;;;7365922;19;20709;-73
2024/01/23 05:03:38;;;;;;;0.77;0.60;;;8.30;99.90;;;;;;7366238;19;20201;-73
2024/01/23 05:06:05;;;;;;;0.60;0.60;;;8.30;99.90;;;;;;7387366;19;20203;-73
2024/01/23 05:08:31;;;;;;;0.20;0.20;;;8.30;99.90;;;;;;7367206;19;20583;-74
2024/01/23 05:10:56;;;;;;;0.20;0.20;;;8.30;99.90;;;;;;7367614;19;20193;-73
2024/01/23 05:13:22;;;;;;;0.70;0.70;;;8.40;99.90;;;;;;7366402;19;20186;-73
2024/01/23 05:15:48;;;;;;;0.40;0.30;;;8.50;99.90;;;;;;7366258;19;20868;-72
2024/01/23 05:18:13;;;;;;;0.60;0.40;;;8.60;99.90;;;;;;7389379;19;20138;-73
2024/01/23 05:20:39;;;;;;;0.40;0.40;;;8.50;99.90;;;;;;7365854;19;20189;-73
2024/01/23 05:23:05;;;;;;;0.40;0.20;;;8.40;99.90;;;;;;7363930;19;20189;-74
2024/01/23 05:25:30;;;;;;;0.30;0.30;;;8.30;99.90;;;;;;7366705;19;20273;-73
2024/01/23 05:27:56;;;;;;;0.53;0.53;;;8.50;99.90;;;;;;7364992;19;20189;-74
2024/01/23 05:30:22;;;;;;;1.23;0.60;;;8.50;99.90;;;;;;7388792;19;20158;-73
2024/01/23 05:32:49;;;;;;;1.13;0.70;;;8.50;99.90;;;;;;7365236;19;20181;-74
2024/01/23 05:35:14;;;;;;;1.50;0.87;;;8.50;99.90;;;;;;7366631;19;20562;-73
2024/01/23 05:37:40;;;;;;;0.43;0.43;;;8.40;99.90;;;;;;7365058;19;20186;-73
2024/01/23 05:40:11;;;;;;;1.60;0.90;;;8.40;99.90;;;;;;7367204;19;20504;-72
2024/01/23 05:42:36;;;;;;;0.33;0.20;;;8.40;99.90;;;;;;7365666;19;20145;-74
2024/01/23 05:45:03;;;;;;;0.47;0.30;;;8.50;99.90;;;;;;7388629;19;20139;-73
2024/01/23 05:47:29;;;;;;;0.90;0.90;;;8.60;99.90;;;;;;7365890;19;20662;-73
2024/01/23 05:49:55;;;;;;;0.67;0.20;;;8.60;99.90;;;;;;7365653;19;20189;-73
2024/01/23 05:52:20;;;;;;;0.37;0.37;;;8.50;99.90;;;;;;7364537;19;20740;-73
2024/01/23 05:54:46;;;;;;;0.40;0.40;;;8.40;99.90;;;;;;7367312;19;20261;-74
2024/01/23 05:57:12;;;;;;;0.40;0.40;;;8.30;99.90;;;;;;7384319;19;20138;-73
2024/01/23 05:59:37;;;;;;;1.60;1.17;;;8.50;99.90;;;;;;7365232;19;20182;-73
2024/01/23 06:02:06;;;;;;;2.20;0.63;;;8.30;99.90;;;;;;7363813;19;20182;-73
2024/01/23 06:04:32;;;;;;;0.40;0.40;;;8.30;99.90;;;;;;7364712;19;20201;-74
2024/01/23 06:06:57;;;;;;;0.70;0.40;;;8.20;99.90;;;;;;7363438;19;20665;-74
2024/01/23 06:09:23;;;;;;;1.83;0.90;;;8.40;99.90;;;;;;7389013;19;20141;-73
2024/01/23 06:11:48;;;;;;;0.20;0.20;;;8.50;99.90;;;;;;7364875;19;20215;-73
2024/01/23 06:14:14;;;;;;;0.20;0.20;;;8.50;99.90;;;;;;7364633;19;20232;-73
2024/01/23 06:16:40;;;;;;;0.63;0.20;;;8.40;99.90;;;;;;7364356;19;20224;-74
2024/01/23 06:19:08;;;;;;;0.30;0.30;;;8.50;99.90;;;;;;7365138;19;20185;-74
2024/01/23 06:21:35;;;;;;;0.37;0.37;;;8.40;99.90;;;;;;7362384;19;21599;-73
2024/01/23 06:24:00;;;;;;;0.20;0.20;;;8.50;99.90;;;;;;7387110;19;20145;-73
2024/01/23 06:26:26;;;;;;;0.50;0.40;;;8.50;99.90;;;;;;7362048;19;20181;-73
2024/01/23 06:28:52;;;;;;;0.30;0.30;;;8.40;99.90;;;;;;7363750;19;20182;-73
2024/01/23 06:31:19;;;;;;;0.20;0.20;;;8.50;99.90;;;;;;7360845;19;20227;-74
2024/01/23 06:33:44;;;;;;;1.83;0.70;;;8.50;99.90;;;;;;7369852;19;20146;-73
2024/01/23 06:36:10;;;;;;;0.37;0.30;;;8.50;99.90;;;;;;7392825;19;21776;-74
2024/01/23 06:38:36;;;;;;;0.30;0.30;;;8.50;99.90;;;;;;7372031;19;20194;-74
2024/01/23 06:41:01;;;;;;;0.60;0.60;;;8.40;99.90;;;;;;7371837;19;20194;-77
2024/01/23 06:43:27;;;;;;;0.20;0.20;;;8.30;99.90;;;;;;7366627;19;20194;-78
2024/01/23 06:45:54;;;;;;;0.40;0.33;;;8.30;99.90;;;;;;7370701;19;20205;-78
2024/01/23 06:48:19;;;;;;;0.53;0.47;;;8.30;99.90;;;;;;7394290;19;20659;-78
2024/01/23 06:50:47;;;;;;;0.20;0.20;;;8.20;99.90;;;;;;7369150;19;20202;-76
2024/01/23 06:53:16;;;;;;;0.20;0.20;;;8.10;99.90;;;;;;7370884;19;20185;-76
2024/01/23 06:55:42;;;;;;;0.40;0.40;;;8.20;99.90;;;;;;7370705;19;20683;-76
2024/01/23 06:58:07;;;;;;;0.93;0.40;;;8.30;99.90;;;;;;7371005;19;20193;-75
2024/01/23 07:00:33;;;;;;;0.27;0.27;;;8.40;99.90;;;;;;7367684;19;20174;-76
2024/01/23 07:02:59;;;;;;;0.40;0.40;;;8.20;99.90;;;;;;7390318;19;20496;-77
2024/01/23 07:05:25;;;;;;;0.63;0.63;;;8.30;99.90;;;;;;7366439;19;20201;-77
2024/01/23 07:07:50;;;;;;;0.20;0.20;;;8.30;99.90;;;;;;7368451;19;20214;-76
2024/01/23 07:10:16;;;;;;;0.80;0.60;;;8.30;99.90;;;;;;7366142;19;20196;-78
2024/01/23 07:12:43;;;;;;;0.70;0.70;;;8.10;99.90;;;;;;7369858;19;20150;-77
2024/01/23 07:15:09;;;;;;;0.20;0.10;;;8.20;99.90;;;;;;7390574;19;20139;-76
2024/01/23 07:17:35;;;;;;;0.57;0.57;;;7.90;99.90;;;;;;7369884;19;20656;-77
2024/01/23 07:20:01;;;;;;;0.30;0.30;;;7.90;99.90;;;;;;7367006;19;20200;-75
2024/01/23 07:22:26;;;;;;;1.03;0.60;;;7.90;99.90;;;;;;7368506;19;20279;-75
2024/01/23 07:24:52;;;;;;;1.07;0.50;;;7.80;99.90;;;;;;7371275;19;20222;-75
2024/01/23 07:27:19;;;;;;;0.40;0.40;;;7.80;99.90;;;;;;7391676;19;20146;-76
2024/01/23 07:29:45;;;;;;;0.20;0.20;;;7.90;99.90;;;;;;7368417;19;20595;-76
2024/01/23 07:32:11;;;;;;;0.27;0.20;;;7.90;99.90;;;;;;7366129;19;20199;-75
2024/01/23 07:34:37;;;;;;;0.30;0.20;;;8.00;99.90;;;;;;7366957;19;20585;-75
2024/01/23 07:37:02;;;;;;;0.67;0.53;;;7.90;99.90;;;;;;7368764;19;20253;-76
2024/01/23 07:39:29;;;;;;;2.10;1.20;;;7.80;99.90;;;;;;7370155;19;20552;-77
2024/01/23 07:41:55;;;;;;;0.20;0.20;;;7.70;99.90;;;;;;7391105;19;20154;-78
2024/01/23 07:44:21;;;;;;;0.33;0.30;;;7.70;99.90;;;;;;7367017;19;20292;-74
2024/01/23 07:46:48;;;;;;;0.33;0.33;;;7.70;99.90;;;;;;7369497;19;20280;-76
2024/01/23 07:49:14;;;;;;;0.30;0.30;;;7.70;99.90;;;;;;7366804;19;20186;-76
2024/01/23 07:51:46;;;;;;;0.30;0.30;;;7.50;99.90;;;;;;7368212;19;20600;-75
2024/01/23 07:54:11;;;;;;;0.20;0.20;;;7.60;99.90;;;;;;7391217;19;20191;-74
2024/01/23 07:56:37;;;;;;;0.30;0.30;;;7.60;99.90;;;;;;7367382;19;20305;-74
2024/01/23 07:59:03;;;;;;;2.00;0.63;;;7.70;99.90;;;;;;7369484;19;20275;-75
2024/01/23 08:01:28;;;;;;;0.20;0.20;;;7.80;99.90;;;;;;7370231;19;20250;-76
2024/01/23 08:03:54;;;;;;;0.30;0.30;;;7.80;99.90;;;;;;7368877;19;20200;-76
2024/01/23 08:06:19;;;;;;;0.20;0.20;;;7.70;99.90;;;;;;7390666;19;20192;-75
2024/01/23 08:08:45;;;;;;;0.70;0.43;;;7.70;99.90;;;;;;7368819;19;20205;-75
2024/01/23 08:11:12;;;;;;;0.87;0.40;;;7.90;99.90;;;;;;7370502;19;20651;-75
2024/01/23 08:13:37;;;;;;;0.83;0.40;;;7.90;99.90;;;;;;7367575;19;20202;-76
2024/01/23 08:16:07;;;;;;;0.30;0.30;;;8.00;99.90;;;;;;7367635;19;20647;-76
2024/01/23 08:18:33;;;;;;;0.43;0.43;;;8.00;99.90;;;;;;7369801;19;20901;-75
2024/01/23 08:20:59;;;;;;;1.43;0.50;;;8.00;99.90;;;;;;7391540;19;20183;-75
2024/01/23 08:23:25;;;;;;;0.20;0.20;;;7.80;99.90;;;;;;7366961;19;20182;-75
2024/01/23 08:25:51;;;;;;;0.20;0.20;;;7.90;99.90;;;;;;7369705;19;20581;-75
2024/01/23 08:28:17;;;;;;;1.90;0.43;;;8.00;99.90;;;;;;7367215;19;20194;-74
2024/01/23 08:30:43;;;;;;;0.27;0.27;;;8.00;99.90;;;;;;7368325;19;20174;-74
2024/01/23 08:33:09;;;;;;;0.53;0.43;;;8.00;99.90;;;;;;7390825;19;20266;-76
2024/01/23 08:35:36;;;;;;;0.30;0.30;;;8.00;99.90;;;;;;7369377;19;20261;-75
2024/01/23 08:38:02;;;;;;;1.70;1.03;;;8.00;99.90;;;;;;7366859;19;20217;-77
2024/01/23 08:40:27;;;;;;;0.50;0.30;;;7.90;99.90;;;;;;7368243;19;20291;-75
2024/01/23 08:42:53;;;;;;;3.77;0.43;;;7.90;99.90;;;;;;7365487;19;20190;-75
2024/01/23 08:45:19;;;;;;;0.97;0.63;;;8.00;99.90;;;;;;7392230;19;20152;-76
2024/01/23 08:47:44;;;;;;;0.77;0.63;;;7.90;99.90;;;;;;7366767;19;20578;-76
2024/01/23 08:50:10;;;;;;;4.07;0.50;;;7.90;99.90;;;;;;7369011;19;20192;-75
2024/01/23 08:52:37;;;;;;;2.10;1.27;;;8.00;99.90;;;;;;7366136;19;20210;-75
2024/01/23 08:55:03;;;;;;;0.23;0.23;;;8.00;99.90;;;;;;7368392;19;20200;-75
2024/01/23 08:57:28;;;;;;;0.40;0.40;;;8.10;99.90;;;;;;7368845;19;20462;-76
2024/01/23 08:59:54;;;;;;;1.50;0.30;;;8.20;99.90;;;;;;7390841;19;20157;-78
2024/01/23 09:02:20;;;;;;;0.50;0.50;;;8.30;99.90;;;;;;7366601;19;20185;-76
2024/01/23 09:04:47;;;;;;;2.40;0.50;;;8.30;99.90;;;;;;7367748;19;20212;-75
2024/01/23 09:07:13;;;;;;;0.40;0.40;;;8.20;99.90;;;;;;7368101;19;20492;-75
2024/01/23 09:09:39;;;;;;;0.40;0.40;;;8.30;99.90;;;;;;7366914;19;20139;-76
2024/01/23 09:12:05;;;;;;;0.87;0.40;;;8.50;99.90;;;;;;7388170;19;20122;-76
2024/01/23 09:14:31;;;;;;;0.47;0.30;;;8.30;99.90;;;;;;7365559;19;20688;-77
2024/01/23 09:16:59;;;;;;;1.17;0.50;;;8.30;99.90;;;;;;7363960;19;20206;-77
2024/01/23 09:19:25;;;;;;;1.40;1.00;;;8.40;99.90;;;;;;7364415;19;20189;-77
2024/01/23 09:21:51;;;;;;;0.77;0.50;;;8.30;99.90;;;;;;7363758;19;20224;-77
2024/01/23 09:24:16;;;;;;;1.40;0.53;;;8.30;99.90;;;;;;7389176;19;20583;-77
2024/01/23 09:26:42;;;;;;;0.33;0.33;;;8.50;99.90;;;;;;7363471;19;20182;-77
2024/01/23 09:29:08;;;;;;;0.63;0.50;;;8.40;99.90;;;;;;7368233;19;20911;-77
2024/01/23 09:31:33;;;;;;;0.53;0.50;;;8.30;99.90;;;;;;7365700;19;20747;-77
2024/01/23 09:33:59;;;;;;;0.87;0.50;;;8.60;99.90;;;;;;7368627;19;20263;-77
2024/01/23 09:36:25;;;;;;;2.97;0.53;;;8.70;99.90;;;;;;7388460;19;20151;-77
2024/01/23 09:38:50;;;;;;;1.67;0.53;;;8.70;99.90;;;;;;7368307;19;20186;-76
2024/01/23 09:41:16;;;;;;;1.03;0.60;;;8.70;99.90;;;;;;7366148;19;20604;-77
2024/01/23 09:43:42;;;;;;;2.00;0.80;;;8.80;99.90;;;;;;7366474;19;20190;-76
2024/01/23 09:46:11;;;;;;;1.57;1.17;;;8.90;99.90;;;;;;7365085;19;21050;-77
2024/01/23 09:48:38;;;;;;;0.40;0.40;;;8.80;99.90;;;;;;7369358;19;20463;-76
2024/01/23 09:51:11;;;;;;;1.50;0.40;;;8.60;99.90;;;;;;7392898;19;20600;-76
2024/01/23 09:53:39;;;;;;;0.20;0.20;;;8.60;99.90;;;;;;7368370;19;20555;-77
2024/01/23 09:56:06;;;;;;;0.63;0.60;;;8.80;99.90;;;;;;7364778;19;20181;-76
2024/01/23 09:58:32;;;;;;;0.30;0.30;;;8.80;99.90;;;;;;7366969;19;20177;-76
2024/01/23 10:00:59;;;;;;;0.40;0.40;;;8.80;99.90;;;;;;7364345;19;20198;-76
2024/01/23 10:03:26;;;;;;;0.30;0.30;;;8.70;99.90;;;;;;7388050;19;20142;-76
2024/01/23 10:05:53;;;;;;;0.30;0.30;;;8.70;99.90;;;;;;7364477;19;20197;-77
2024/01/23 10:08:22;;;;;;;0.27;0.27;;;8.80;99.90;;;;;;7369273;19;20182;-78
2024/01/23 10:10:56;;;;;;;0.90;0.50;;;8.90;99.90;;;;;;7371234;19;20213;-77
2024/01/23 10:13:22;;;;;;;0.40;0.40;;;8.90;99.90;;;;;;7370475;19;20261;-76
2024/01/23 10:15:48;;;;;;;0.40;0.23;;;8.90;99.90;;;;;;7373198;19;20215;-76
2024/01/23 10:18:13;;;;;;;1.47;0.67;;;8.80;99.90;;;;;;7395921;19;20197;-76
2024/01/23 10:20:40;;;;;;;1.20;0.60;;;9.00;99.90;;;;;;7372861;19;20688;-76
2024/01/23 10:23:06;;;;;;;0.20;0.20;;;9.10;99.90;;;;;;7369315;19;20226;-77
2024/01/23 10:25:32;;;;;;;0.40;0.40;;;9.10;99.90;;;;;;7373481;19;20583;-77
2024/01/23 10:27:58;;;;;;;0.80;0.50;;;9.10;99.90;;;;;;7371877;19;20261;-77
2024/01/23 10:30:24;;;;;;;0.27;0.27;;;9.20;99.90;;;;;;7394694;19;20145;-76
2024/01/23 10:32:50;;;;;;;0.40;0.40;;;9.10;99.90;;;;;;7372009;19;20190;-77
2024/01/23 10:35:15;;;;;;;0.80;0.80;;;9.10;99.90;;;;;;7373300;19;20237;-77
2024/01/23 10:37:42;;;;;;;0.20;0.20;;;9.10;99.90;;;;;;7372775;19;20186;-76
2024/01/23 10:40:12;;;;;;;0.87;0.83;;;9.10;99.90;;;;;;7371743;19;20683;-76
2024/01/23 10:42:39;;;;;;;1.53;1.20;;;9.00;99.90;;;;;;7371424;19;20163;-76
2024/01/23 10:45:06;;;;;;;0.67;0.50;;;9.10;99.90;;;;;;7394560;19;20159;-76
2024/01/23 10:47:31;;;;;;;1.63;0.73;;;9.30;99.90;;;;;;7373420;19;20186;-76
2024/01/23 10:49:57;;;;;;;0.83;0.60;;;9.50;99.90;;;;;;7373604;19;20246;-77
2024/01/23 10:52:27;;;;;;;1.57;0.80;;;9.50;99.90;;;;;;7369891;19;20196;-77
2024/01/23 10:54:56;;;;;;;2.93;1.07;;;9.60;99.90;;;;;;7371919;19;20194;-77
2024/01/23 10:57:23;;;;;;;2.50;1.37;;;9.60;99.90;;;;;;7391945;19;20631;-76
2024/01/23 10:59:50;;;;;;;2.30;0.87;;;9.30;99.90;;;;;;7372414;19;20659;-76
2024/01/23 11:02:31;;;;;;;1.03;0.40;;;9.30;99.90;;;;;;7369268;19;20581;-76
2024/01/23 11:04:58;;;;;;;1.00;0.50;;;9.30;99.90;;;;;;7372596;19;20205;-75
2024/01/23 11:07:46;;;;;;;1.00;0.90;;;9.30;99.90;;;;;;7369898;19;20184;-75
2024/01/23 11:10:22;;;;;;;2.20;0.70;;;9.20;99.90;;;;;;7372241;19;20701;-76
2024/01/23 11:13:10;;;;;;;1.40;0.87;;;9.20;99.90;;;;;;7370538;19;20250;-76
2024/01/23 11:15:36;;;;;;;1.47;0.90;;;9.50;99.90;;;;;;7370127;19;20131;-76
2024/01/23 11:18:35;;;;;;;1.37;0.57;;;9.60;99.90;;;;;;7391520;19;20150;-76
2024/01/23 11:21:10;;;;;;;0.60;0.60;;;9.40;99.90;;;;;;7368134;19;20178;-77
2024/01/23 11:23:39;;;;;;;0.70;0.70;;;9.50;99.90;;;;;;7367078;19;20695;-77
2024/01/23 11:26:22;;;;;;;0.67;0.67;;;9.50;99.90;;;;;;7371072;19;20311;-76
2024/01/23 11:28:52;;;;;;;0.30;0.30;;;9.40;99.90;;;;;;7370058;19;20561;-76
2024/01/23 11:31:21;;;;;;;0.30;0.30;;;9.50;99.90;;;;;;7370738;19;20245;-76
2024/01/23 11:33:47;;;;;;;0.33;0.33;;;9.60;99.90;;;;;;7376898;19;20224;-77
2024/01/23 11:36:23;;;;;;;1.43;0.80;;;9.50;99.90;;;;;;7392720;19;20139;-75
2024/01/23 11:38:53;;;;;;;1.73;0.47;;;9.60;99.90;;;;;;7374014;19;20268;-78
2024/01/23 11:41:23;;;;;;;1.77;1.20;;;9.70;99.90;;;;;;7368911;19;20515;-77
2024/01/23 11:43:52;;;;;;;0.57;0.53;;;9.60;99.90;;;;;;7371260;19;20186;-77
2024/01/23 11:46:20;;;;;;;0.53;0.40;;;9.50;99.90;;;;;;7367235;19;20182;-77
2024/01/23 11:48:48;;;;;;;1.90;0.87;;;9.40;99.90;;;;;;7370510;19;20142;-77
2024/01/23 11:51:15;;;;;;;0.33;0.33;;;9.50;99.90;;;;;;7388871;19;20142;-77
2024/01/23 11:53:44;;;;;;;1.03;0.50;;;9.60;99.90;;;;;;7371413;19;20182;-76
2024/01/23 11:56:10;;;;;;;1.07;0.80;;;9.70;99.90;;;;;;7370508;19;20667;-77
2024/01/23 11:58:36;;;;;;;0.50;0.50;;;9.80;99.90;;;;;;7367820;19;20257;-78
2024/01/23 12:01:05;;;;;;;0.20;0.20;;;9.80;99.90;;;;;;7370796;19;20595;-77
2024/01/23 12:03:31;;;;;;;0.80;0.80;;;10.10;99.90;;;;;;7374123;19;20707;-77
2024/01/23 12:05:57;;;;;;;3.88;0.60;;;10.20;99.90;;;;;;7390767;19;20186;-76
2024/01/23 12:08:23;;;;;;;0.93;0.47;;;10.50;99.90;;;;;;7369849;19;20208;-75
2024/01/23 12:10:50;;;;;;;0.32;0.32;;;10.70;99.90;;;;;;7366792;19;20731;-77
2024/01/23 12:13:15;;;;;;;0.77;0.77;;;11.10;99.90;;;;;;7369983;19;20186;-77
2024/01/23 12:15:41;;;;;;;0.77;0.57;;;11.30;99.90;;;;;;7370166;19;20146;-76
2024/01/23 12:18:13;;;;;;;2.23;0.53;;;11.20;99.90;;;;;;7392958;19;20142;-76
2024/01/23 12:20:42;;;;;;;1.47;0.67;;;11.10;99.90;;;;;;7371977;19;20193;-76
2024/01/23 12:23:08;;;;;;;0.87;0.70;;;11.10;99.90;;;;;;7366615;19;20178;-76
2024/01/23 12:25:34;;;;;;;0.43;0.40;;;10.90;99.90;;;;;;7369516;19;20210;-77
2024/01/23 12:28:00;;;;;;;0.77;0.50;;;10.90;99.90;;;;;;7366985;19;20188;-77
2024/01/23 12:30:26;;;;;;;0.73;0.35;;;10.90;99.90;;;;;;7388432;19;20591;-76
2024/01/23 12:32:52;;;;;;;0.40;0.40;;;10.60;99.90;;;;;;7369507;19;20210;-76
2024/01/23 12:35:17;;;;;;;5.57;0.50;;;10.50;99.90;;;;;;7368805;19;20178;-76
2024/01/23 12:37:43;;;;;;;0.77;0.60;;;10.30;99.90;;;;;;7366542;19;20186;-76
2024/01/23 12:40:13;;;;;;;0.60;0.60;;;10.20;99.90;;;;;;7368267;19;20308;-76
2024/01/23 12:42:40;;;;;;;0.67;0.37;;;10.50;99.90;;;;;;7367680;19;20158;-77
2024/01/23 12:45:25;;;;;;;1.70;0.80;;;10.60;99.90;;;;;;7388702;19;20500;-77
2024/01/23 12:47:51;;;;;;;0.83;0.40;;;10.60;99.90;;;;;;7367873;19;22561;-76
2024/01/23 12:50:22;;;;;;;3.47;0.90;;;10.70;99.90;;;;;;7367256;19;20242;-77
2024/01/23 12:52:50;;;;;;;0.53;0.53;;;10.60;99.90;;;;;;7368463;19;20217;-76